Crittenden, Virginia
Current Conditions -  °F | °C
As of 6:55 AM on Wednesday 28 Jan 2015 (Local Time) from KPVG Reporting Station
Clear Clear  
Wind Chill: 19°   Ceiling: Unl
Heat Index: 27°   Visibility: 10mi
Dew Point: 14°   Wind: 7mph
Humidity: 59%   Direction: 360°N
Pressure: 30.15"   Gusts: NA
Location:  36.9072°N, 76.491°W
Report Text: KPVG 281155Z AUTO 36006KT 10SM CLR M03/M10 A3015 RMK AO1 70001 11010 21030 52034
Loading
Personal Weather Stations






























Interactive Weather Map New forecast layout! Learn more

10-Day Weather Forecast

Advertisements
Track Severe Weather on mobile